NCAR-RAP Real-Time Weather Data

Output produced by METARs form (08 May 2021  01:20 UTC)
found at http://weather.rap.ucar.edu/surface/
 
KSNS 080053Z AUTO 28015KT 9SM CLR 16/07 A3005 RMK AO2 SLP185 T01560067
KSNS 072353Z 26014KT 9SM CLR 17/07 A3005 RMK AO2 SLP186 T01670072 10183 20156 56010
KSNS 072253Z 28013G19KT 10SM CLR 18/07 A3005 RMK AO2 SLP186 T01780067
KSNS 072153Z 30015G22KT 10SM CLR 18/07 A3008 RMK AO2 SLP193 T01780072
KSNS 072053Z 30014G23KT 10SM CLR 17/07 A3008 RMK AO2 SLP196 T01720072 58002
KSNS 071953Z 27013KT 10SM CLR 18/08 A3009 RMK AO2 SLP199 T01780078
KSNS 071853Z 27012KT 10SM CLR 16/07 A3010 RMK AO2 SLP200 T01610072
KSNS 071753Z 27013KT 10SM CLR 16/07 A3009 RMK AO2 SLP198 T01560072 10161 20117 56004
KSNS 071653Z 27014KT 10SM FEW022 16/07 A3009 RMK AO2 SLP199 T01560072
KSNS 071615Z 28010KT 10SM SCT020 14/07 A3009 RMK AO2 T01440072
KSNS 071553Z 27011KT 10SM BKN019 14/07 A3009 RMK AO2 SLP198 T01390072
KSNS 071453Z 26010KT 10SM OVC016 12/07 A3010 RMK AO2 SLP202 T01220072 53006
KSNS 071353Z 27011KT 10SM OVC015 12/08 A3009 RMK AO2 SLP199 T01170078 $
KSNS 071309Z 27010KT 10SM OVC015 12/08 A3008 RMK AO2 T01220078 $
KSNS 071253Z 26011KT 10SM OVC014 12/08 A3008 RMK AO2 SLP194 T01170078 $